• Join FlightAware (Why Join?)
  • Login
  • US Flag 
08:58AM EST


 

Airport Tracker/Info


-or-


 

Live Flight TrackerFlight Track Log ✈ SKW5550 ✈ 13-Oct-2013 ✈ KDEN - KSMF

Flight Track Log - Related Links

Times and Time Zones

All times are in EDT time to prevent confusion due to time zone crossing. See the SKW5550 flight status page for this flight to view local times or setup timezone preferences in your user account.

Time Position Orientation Groundspeed Altitude Reporting Facility
EDT Latitude Longitude Course Direction KTS MPH feet Rate Location/Type
05:06PM 39.7833 -104.6667 201° Southwest 203 234 7,700  Level Denver TRACON
05:07PM 39.7167 -104.7000 201° Southwest 258 297 8,700 1,680 Climbing Denver TRACON
05:08PM 39.7047 -104.7689 257° West 281 323 10,700 2,280 Climbing Denver Center
05:09PM 39.7358 -104.8686 292° West 295 339 12,800 2,100 Climbing Denver Center
05:10PM 39.7647 -104.9703 290° West 299 344 15,100 1,980 Climbing Denver Center
05:11PM 39.7978 -105.0794 292° West 303 349 16,900 1,620 Climbing Denver Center
05:12PM 39.8278 -105.1836 291° West 310 357 18,500 1,500 Climbing Denver Center
05:13PM 39.8622 -105.2986 291° West 316 364 20,000 1,500 Climbing Denver Center
05:14PM 39.8936 -105.4058 291° West 315 362 21,600 1,440 Climbing Denver Center
05:15PM 39.9269 -105.5131 292° West 318 366 23,000 1,140 Climbing Denver Center
05:16PM 39.9606 -105.6308 290° West 324 373 24,000 900 Climbing Denver Center
05:17PM 39.9714 -105.7428 277° West 319 367 24,900 780 Climbing Denver Center
05:18PM 39.9783 -105.8550 275° West 312 359 25,700 720 Climbing Denver Center
05:19PM 39.9953 -105.9722 281° West 326 375 26,500 780 Climbing Denver Center
05:20PM 40.0128 -106.0908 281° West 332 382 27,400 900 Climbing Denver Center
05:21PM 40.0328 -106.2347 280° West 338 389 28,400 840 Climbing Denver Center
05:22PM 40.0475 -106.3550 279° West 336 387 29,200 720 Climbing Denver Center
05:23PM 40.0647 -106.4742 281° West 336 387 30,000 540 Climbing Denver Center
05:24PM 40.0831 -106.6094 280° West 342 394 30,400 480 Climbing Denver Center
05:25PM 40.0983 -106.7269 280° West 344 396 31,000 480 Climbing Denver Center
05:26PM 40.1156 -106.8642 279° West 345 397 31,500 480 Climbing Denver Center
05:27PM 40.1328 -106.9847 281° West 351 404 32,000 240 Climbing Denver Center
05:28PM 40.1514 -107.1258 280° West 353 406 32,000  Level Denver Center
05:29PM 40.1661 -107.2464 279° West 352 405 32,000  Level Denver Center
05:30PM 40.1814 -107.3669 279° West 352 405 32,000  Level Denver Center
05:31PM 40.2000 -107.5056 280° West 347 399 32,000  Level Denver Center
05:32PM 40.2147 -107.6253 279° West 350 403 32,000  Level Denver Center
05:33PM 40.2314 -107.7631 279° West 345 397 32,000  Level Denver Center
05:34PM 40.2458 -107.8811 279° West 344 396 32,000  Level Denver Center
05:35PM 40.2625 -108.0181 279° West 344 396 32,000  Level Denver Center
05:36PM 40.2769 -108.1339 279° West 341 392 32,000  Level Denver Center
05:38PM 40.2933 -108.2719 279° West 342 394 32,000  Level Denver Center
05:39PM 40.3069 -108.3864 279° West 337 388 32,000  Level Denver Center
05:40PM 40.3228 -108.5203 279° West 335 386 32,000  Level Denver Center
05:41PM 40.3369 -108.6389 279° West 339 390 32,000  Level Denver Center
05:42PM 40.3522 -108.7775 278° West 345 397 32,000  Level Denver Center
05:43PM 40.3658 -108.8964 279° West 347 399 32,000  Level Denver Center
05:44PM 40.3814 -109.0364 278° West 348 400 32,000  Level Denver Center
05:45PM 40.3950 -109.1558 279° West 348 400 32,000  Level Denver Center
05:46PM 40.4097 -109.2942 278° West 345 397 32,000  Level Denver Center
05:47PM 40.4233 -109.4139 279° West 346 398 32,000  Level Denver Center
05:48PM 40.4389 -109.5528 278° West 347 399 32,000  Level Denver Center
05:49PM 40.4531 -109.6931 278° West 347 399 32,000  Level Salt Lake Center
05:50PM 40.4683 -109.8344 278° West 350 403 32,000  Level Salt Lake Center
05:51PM 40.4808 -109.9567 278° West 352 405 32,000  Level Salt Lake Center
05:52PM 40.4933 -110.0792 278° West 354 407 32,000  Level Salt Lake Center
05:53PM 40.5083 -110.2217 278° West 353 406 32,000  Level Salt Lake Center
05:54PM 40.5211 -110.3456 278° West 358 412 32,000  Level Salt Lake Center
05:55PM 40.5350 -110.4889 277° West 355 409 32,000  Level Salt Lake Center
05:56PM 40.5464 -110.6036 277° West 356 410 32,000  Level Salt Lake Center
05:57PM 40.5619 -110.7603 277° West 360 414 32,000  Level Salt Lake Center
05:58PM 40.5747 -110.8919 277° West 362 417 32,000  Level Salt Lake Center
05:59PM 40.5881 -111.0253 278° West 366 421 32,000  Level Salt Lake Center
06:00PM 40.6000 -111.1589 277° West 368 423 32,000  Level Salt Lake Center
06:01PM 40.6128 -111.2939 277° West 370 426 32,000  Level Salt Lake Center
06:02PM 40.6247 -111.4294 277° West 373 429 32,000  Level Salt Lake Center
06:03PM 40.6372 -111.5667 277° West 376 433 32,000  Level Salt Lake Center
06:05PM 40.6522 -111.7322 277° West 378 435 32,000  Level Salt Lake Center
06:06PM 40.6650 -111.8703 277° West 378 435 32,000  Level Salt Lake Center
06:07PM 40.6764 -112.0092 276° West 379 436 32,000  Level Salt Lake Center
06:08PM 40.6886 -112.1492 277° West 383 441 32,000  Level Salt Lake Center
06:09PM 40.7006 -112.2897 276° West 386 444 32,000  Level Salt Lake Center
06:10PM 40.6906 -112.4267 265° West 373 429 32,000  Level Salt Lake Center
06:11PM 40.6703 -112.5631 259° West 378 435 32,000  Level Salt Lake Center
06:12PM 40.6494 -112.6989 259° West 381 438 32,000  Level Salt Lake Center
06:13PM 40.6231 -112.8619 258° West 382 440 32,000  Level Salt Lake Center
06:14PM 40.6006 -112.9986 258° West 381 438 32,000  Level Salt Lake Center
06:15PM 40.5786 -113.1378 258° West 389 448 32,000  Level Salt Lake Center
06:16PM 40.5583 -113.2747 259° West 382 440 32,000  Level Salt Lake Center
06:17PM 40.5317 -113.4128 256° West 390 449 32,000  Level Salt Lake Center
06:18PM 40.5094 -113.5533 258° West 392 451 32,000  Level Salt Lake Center
06:19PM 40.4864 -113.6933 258° West 393 452 32,000  Level Salt Lake Center
06:20PM 40.4583 -113.8625 258° West 397 457 32,000  Level Salt Lake Center
06:21PM 40.4339 -114.0039 257° West 398 458 32,000  Level Salt Lake Center
06:22PM 40.4103 -114.1464 258° West 400 460 32,000  Level Salt Lake Center
06:23PM 40.3864 -114.2886 258° West 401 461 32,000  Level Salt Lake Center
06:24PM 40.3608 -114.4308 257° West 401 461 32,000  Level Salt Lake Center
06:25PM 40.3358 -114.5725 257° West 400 460 32,000  Level Salt Lake Center
06:26PM 40.3119 -114.7153 258° West 402 463 32,000  Level Salt Lake Center
06:27PM 40.2831 -114.8750 257° West 405 466 32,000  Level Salt Lake Center
06:28PM 40.2683 -115.0133 262° West 403 464 32,000  Level Salt Lake Center
06:29PM 40.2675 -115.1783 270° West 405 466 32,000  Level Salt Lake Center
06:30PM 40.2614 -115.3200 267° West 406 467 32,000  Level Salt Lake Center
06:31PM 40.2569 -115.4856 268° West 407 468 32,000  Level Salt Lake Center
06:32PM 40.2508 -115.6261 267° West 406 467 32,000  Level Salt Lake Center
06:33PM 40.2267 -115.7908 259° West 409 471 32,000  Level Salt Lake Center
06:34PM 40.1903 -115.9297 251° West 417 480 32,000  Level Salt Lake Center
06:35PM 40.1369 -116.0567 241° Southwest 416 479 32,000  Level Salt Lake Center
06:36PM 40.0581 -116.2033 235° Southwest 432 497 32,000  Level Salt Lake Center
06:37PM 40.0111 -116.3361 245° Southwest 420 483 32,000  Level Salt Lake Center
06:38PM 39.9836 -116.4778 256° West 417 480 32,000  Level Salt Lake Center
06:39PM 39.9519 -116.6425 256° West 417 480 32,000  Level Salt Lake Center
06:40PM 39.9236 -116.7836 255° West 417 480 32,000  Level Salt Lake Center
06:42PM 39.8908 -116.9497 256° West 420 483 32,000  Level Salt Lake Center
06:43PM 39.8622 -117.0919 255° West 422 486 32,000  Level Salt Lake Center
06:44PM 39.8322 -117.2336 255° West 421 484 32,000  Level Salt Lake Center
06:45PM 39.7994 -117.3994 256° West 422 486 32,000  Level Salt Lake Center
06:46PM 39.7725 -117.5367 256° West 424 488 32,000  Level Salt Lake Center
06:47PM 39.7419 -117.6839 255° West 423 487 32,000  Level Salt Lake Center
06:48PM 39.7125 -117.8300 255° West 420 483 32,000  Level Salt Lake Center
06:49PM 39.6761 -118.0064 255° West 421 484 32,000  Level Salt Lake Center
06:50PM 39.6458 -118.1533 255° West 423 487 32,000  Level Salt Lake Center
06:51PM 39.6153 -118.2989 255° West 421 484 32,000  Level Salt Lake Center
06:52PM 39.5847 -118.4428 255° West 417 480 32,000  Level Salt Lake Center
06:53PM 39.5542 -118.5847 254° West 413 475 32,000  Level Salt Lake Center
06:54PM 39.5244 -118.7253 255° West 412 474 32,000 -300 Level Salt Lake Center
06:55PM 39.4828 -118.9197 255° West 411 473 31,400 -720 Descending Oakland Center
06:56PM 39.4508 -119.0644 254° West 405 466 30,400 -1,020 Descending Oakland Center
06:57PM 39.4233 -119.1911 254° West 390 449 29,400 -1,020 Descending Oakland Center
06:58PM 39.3939 -119.3231 254° West 385 443 28,400 -1,080 Descending Oakland Center
06:59PM 39.3586 -119.4814 254° West 383 441 27,200 -1,080 Descending Oakland Center
07:00PM 39.3297 -119.6108 254° West 379 436 26,200 -1,020 Descending Oakland Center
07:01PM 39.2992 -119.7419 253° West 381 438 25,200 -840 Descending Oakland Center
07:02PM 39.2694 -119.8725 254° West 380 437 24,500 -840 Descending Oakland Center
07:03PM 39.2414 -119.9981 254° West 369 425 23,500 -1,080 Descending Oakland Center
07:04PM 39.2119 -120.1339 254° West 358 412 22,300 -1,080 Descending Oakland Center
07:05PM 39.1822 -120.2528 252° West 351 404 21,300 -1,020 Descending Oakland Center
07:06PM 39.1531 -120.3719 253° West 350 403 20,300 -1,020 Descending Oakland Center
07:07PM 39.1236 -120.4872 252° West 342 394 19,300 -1,020 Descending Oakland Center
07:08PM 39.0950 -120.6006 252° West 335 386 18,300 -1,020 Descending Oakland Center
07:09PM 39.0664 -120.7142 252° West 334 384 17,300 -1,020 Descending Oakland Center
07:11PM 39.0367 -120.8303 252° West 341 392 16,300 -960 Descending Oakland Center
07:12PM 39.0000 -120.9694 251° West 344 396 15,400 -1,020 Descending Oakland Center
07:13PM 38.9725 -121.0764 252° West 322 371 14,300 -1,080 Descending Oakland Center
07:13PM 38.9500 -121.1667 252° West 305 351 13,500 -1,020 Descending Northern Cal TRACON
07:14PM 38.9167 -121.2667 247° West 312 359 12,500 -1,020 Descending Northern Cal TRACON
07:16PM 38.8833 -121.4833 259° West 312 359 10,500 -1,260 Descending Northern Cal TRACON
07:17PM 38.8667 -121.5833 258° West 297 342 8,800 -1,800 Descending Northern Cal TRACON
07:18PM 38.8333 -121.6667 243° Southwest 292 336 6,900 -1,920 Descending Northern Cal TRACON
07:19PM 38.7500 -121.6833 189° South 274 315 5,000 -1,980 Descending Northern Cal TRACON
07:20PM 38.6833 -121.6833 180° South 268 308 3,000 -1,860 Descending Northern Cal TRACON
07:21PM 38.6000 -121.6667 171° South 272 313 1,300 -900 Descending Northern Cal TRACON
07:22PM 38.6167 -121.6167 67° East 173 199 1,300 -240 Level Northern Cal TRACON
07:23PM 38.6500 -121.5833 38° Northeast 155 178 900 -660 Descending Northern Cal TRACON
07:24PM 38.6833 -121.5833 360° North 135 155 100 -840 Descending Northern Cal TRACON